Time;durP1;ratioP1;P1;durP2;ratioP2;P2;SDS_P1;SDS_P2;PMS_P1;PMS_P2;Temp;Humidity;BMP_temperature;BMP_pressure;BME280_temperature;BME280_humidity;BME280_pressure;Samples;Min_cycle;Max_cycle;Signal;HPM_P1;HPM_P2
2022/05/31 00:00:23;;;;;;;5.18;3.00;;;;;;;15.76;62.91;100369.59;5407361;32;34134;-75
2022/05/31 00:03:26;;;;;;;5.47;3.00;;;;;;;15.91;62.27;100373.97;5403998;32;34153;-74
2022/05/31 00:06:28;;;;;;;5.40;3.00;;;;;;;16.35;60.97;100366.81;5416679;32;35114;-76
2022/05/31 00:09:30;;;;;;;7.17;3.30;;;;;;;16.68;59.09;100354.06;5399953;32;34087;-76
2022/05/31 00:12:33;;;;;;;5.25;3.08;;;;;;;16.06;62.17;100356.25;5412751;32;33979;-75
2022/05/31 00:15:35;;;;;;;5.28;3.20;;;;;;;16.06;62.08;100355.41;5398535;32;35785;-74
2022/05/31 00:18:38;;;;;;;5.82;3.03;;;;;;;16.47;60.16;100350.97;5416280;32;34091;-76
2022/05/31 00:21:43;;;;;;;5.50;2.73;;;;;;;16.14;61.49;100359.28;5395442;32;34485;-75
2022/05/31 00:24:45;;;;;;;3.87;2.60;;;;;;;16.75;58.55;100355.41;5383055;32;44200;-76
2022/05/31 00:27:47;;;;;;;5.23;2.50;;;;;;;16.21;59.31;100365.03;5399298;32;34341;-74
2022/05/31 00:30:50;;;;;;;7.40;3.17;;;;;;;16.20;59.60;100364.19;5384128;32;35639;-75
2022/05/31 00:33:52;;;;;;;5.37;2.70;;;;;;;15.83;61.54;100375.38;5409342;32;34617;-75
2022/05/31 00:36:57;;;;;;;5.30;3.00;;;;;;;15.23;64.23;100370.97;5403266;32;35077;-75
2022/05/31 00:39:59;;;;;;;6.20;3.10;;;;;;;15.49;64.10;100374.72;5401538;32;35186;-75
2022/05/31 00:43:04;;;;;;;5.43;3.50;;;;;;;15.60;63.92;100384.69;5415629;32;35479;-76
2022/05/31 00:46:07;;;;;;;8.37;3.73;;;;;;;15.44;64.71;100385.59;5406529;32;35258;-75
2022/05/31 00:49:11;;;;;;;6.32;3.78;;;;;;;15.72;63.59;100393.75;5400738;32;35360;-75
2022/05/31 00:52:17;;;;;;;6.50;3.60;;;;;;;15.31;64.74;100400.50;5397048;32;34051;-76
2022/05/31 00:55:45;;;;;;;10.03;4.37;;;;;;;15.68;64.19;100399.22;5378745;32;44734;-76
2022/05/31 00:58:56;;;;;;;6.03;3.30;;;;;;;15.12;66.25;100395.41;5427827;32;44158;-77
2022/05/31 01:01:58;;;;;;;6.47;3.70;;;;;;;15.88;63.32;100398.00;5412140;32;35486;-77
2022/05/31 01:05:01;;;;;;;7.03;3.83;;;;;;;16.42;60.96;100400.84;5414972;32;34207;-76
2022/05/31 01:08:04;;;;;;;5.62;3.30;;;;;;;16.30;60.67;100400.75;5396007;32;35416;-74
2022/05/31 01:11:06;;;;;;;7.30;3.22;;;;;;;16.39;60.69;100400.19;5429506;32;35238;-75
2022/05/31 01:14:10;;;;;;;8.37;4.00;;;;;;;16.51;59.62;100402.06;5422300;32;34658;-74
2022/05/31 01:17:16;;;;;;;6.90;4.10;;;;;;;16.40;59.67;100405.38;5402787;32;34044;-76
2022/05/31 01:20:21;;;;;;;8.37;3.57;;;;;;;15.39;64.12;100418.56;5420511;32;46059;-75
2022/05/31 01:23:25;;;;;;;8.90;3.90;;;;;;;15.31;65.60;100418.19;5401180;32;34658;-77
2022/05/31 01:27:01;;;;;;;7.73;3.83;;;;;;;15.54;64.18;100423.00;5420635;32;33974;-76
2022/05/31 01:30:05;;;;;;;7.33;3.30;;;;;;;15.88;62.10;100411.25;5368103;32;35577;-78
2022/05/31 01:33:16;;;;;;;6.20;3.20;;;;;;;15.02;65.45;100419.87;5396347;32;34389;-76
2022/05/31 01:36:30;;;;;;;6.30;3.30;;;;;;;16.04;61.53;100427.09;5419682;32;46038;-75
2022/05/31 01:39:50;;;;;;;7.27;3.13;;;;;;;15.43;62.90;100426.25;5405284;32;35923;-74
2022/05/31 01:42:52;;;;;;;8.33;3.33;;;;;;;15.03;65.24;100429.50;5415447;32;44385;-74
2022/05/31 01:45:57;;;;;;;7.47;3.20;;;;;;;14.40;67.90;100437.41;5410148;32;35664;-74
2022/05/31 01:49:01;;;;;;;5.23;3.10;;;;;;;15.21;64.70;100438.19;5405390;32;34229;-76
2022/05/31 01:52:04;;;;;;;5.90;3.23;;;;;;;14.68;66.46;100436.75;5433379;32;35591;-75
2022/05/31 01:55:08;;;;;;;5.62;2.80;;;;;;;14.63;67.78;100437.03;5403381;32;33591;-75
2022/05/31 01:58:17;;;;;;;7.17;3.20;;;;;;;14.42;67.63;100438.16;5412210;32;34850;-75
2022/05/31 02:01:21;;;;;;;7.60;3.33;;;;;;;14.85;66.24;100436.69;5416841;32;44003;-76
2022/05/31 02:04:23;;;;;;;;;;;;;;;14.43;67.72;100438.09;5410440;32;34111;-74
2022/05/31 02:07:26;;;;;;;7.83;3.30;;;;;;;14.58;66.97;100447.00;5415632;32;36057;-77
2022/05/31 02:10:29;;;;;;;;;;;;;;;14.36;68.40;100455.19;5401185;32;36063;-74
2022/05/31 02:13:31;;;;;;;7.50;3.00;;;;;;;15.14;65.62;100438.56;5434259;32;34215;-76
2022/05/31 02:16:33;;;;;;;7.27;3.10;;;;;;;15.12;65.57;100442.22;5402834;32;36040;-74
2022/05/31 02:19:36;;;;;;;7.70;3.30;;;;;;;14.81;65.69;100445.72;5434133;32;35713;-76
2022/05/31 02:22:38;;;;;;;6.37;3.42;;;;;;;14.69;67.26;100446.44;5411052;32;34200;-75
2022/05/31 02:25:40;;;;;;;6.28;3.60;;;;;;;14.30;67.96;100458.19;5416302;32;33825;-74
2022/05/31 02:28:42;;;;;;;7.10;4.00;;;;;;;14.55;68.03;100442.72;5420071;32;34886;-76
2022/05/31 02:31:46;;;;;;;8.23;3.70;;;;;;;14.31;69.78;100451.97;5415249;32;46404;-75
2022/05/31 02:34:48;;;;;;;;;;;;;;;14.83;67.48;100457.09;5412219;32;34856;-75
2022/05/31 02:37:50;;;;;;;7.30;3.57;;;;;;;14.46;67.90;100453.81;5390003;32;35724;-75
2022/05/31 02:40:53;;;;;;;7.83;3.57;;;;;;;14.35;68.96;100456.12;5433568;32;34188;-76
2022/05/31 02:43:55;;;;;;;7.00;3.97;;;;;;;14.46;67.97;100452.94;5417364;32;35268;-76
2022/05/31 02:46:57;;;;;;;6.93;3.72;;;;;;;14.45;68.12;100462.66;5402176;32;35372;-75
2022/05/31 02:49:59;;;;;;;7.33;3.90;;;;;;;14.84;67.07;100458.81;5434858;32;33973;-74
2022/05/31 02:53:02;;;;;;;8.40;4.20;;;;;;;15.11;65.07;100457.25;5390331;32;34104;-76
2022/05/31 02:56:04;;;;;;;5.90;3.13;;;;;;;15.35;64.19;100451.50;5412603;32;34177;-75
2022/05/31 02:59:06;;;;;;;7.77;4.00;;;;;;;14.86;65.90;100449.81;5417802;32;34872;-75
2022/05/31 03:02:10;;;;;;;6.90;3.47;;;;;;;14.40;67.71;100459.41;5411340;32;34106;-74
2022/05/31 03:05:12;;;;;;;9.10;3.87;;;;;;;14.93;65.83;100458.28;5407744;32;35207;-77
2022/05/31 03:08:16;;;;;;;7.23;4.10;;;;;;;15.13;64.83;100459.78;5415535;32;42559;-74
2022/05/31 03:11:34;;;;;;;7.57;3.80;;;;;;;15.42;63.61;100455.50;5407198;32;34084;-75
2022/05/31 03:14:40;;;;;;;8.57;4.03;;;;;;;15.36;63.53;100455.84;5403057;32;35196;-74
2022/05/31 03:17:53;;;;;;;9.80;4.53;;;;;;;14.85;66.32;100452.56;5416164;32;34054;-76
2022/05/31 03:20:57;;;;;;;9.05;4.20;;;;;;;14.57;67.91;100459.38;5391254;32;36812;-76
2022/05/31 03:24:03;;;;;;;9.47;5.00;;;;;;;14.70;66.47;100461.38;5398937;32;34101;-76
2022/05/31 03:27:07;;;;;;;9.43;4.63;;;;;;;13.99;69.94;100453.66;5400031;32;34545;-75
2022/05/31 03:30:09;;;;;;;10.30;4.73;;;;;;;13.99;70.34;100454.53;5400011;32;34171;-75
2022/05/31 03:33:12;;;;;;;7.97;4.95;;;;;;;15.14;65.68;100445.66;5414555;32;34049;-75
2022/05/31 03:36:14;;;;;;;10.10;5.62;;;;;;;15.00;65.89;100449.03;5395147;32;35407;-75
2022/05/31 03:39:16;;;;;;;12.70;5.87;;;;;;;14.56;67.51;100447.09;5432962;32;35413;-76
2022/05/31 03:42:18;;;;;;;12.73;5.87;;;;;;;14.69;68.45;100444.63;5413825;32;35619;-75
2022/05/31 03:45:21;;;;;;;13.47;5.63;;;;;;;14.70;68.01;100446.34;5399059;32;35614;-75
2022/05/31 03:48:23;;;;;;;11.90;5.50;;;;;;;15.29;65.72;100443.91;5419221;32;35152;-75
2022/05/31 03:51:25;;;;;;;12.07;5.43;;;;;;;15.32;64.87;100451.66;5416332;32;35654;-75
2022/05/31 03:54:28;;;;;;;9.27;4.60;;;;;;;15.21;65.69;100452.28;5426846;32;34235;-76
2022/05/31 03:57:30;;;;;;;11.43;5.20;;;;;;;15.57;63.63;100461.69;5402472;32;33607;-75
2022/05/31 04:00:32;;;;;;;11.43;4.73;;;;;;;15.11;65.55;100470.47;5426307;32;35285;-75
2022/05/31 04:03:34;;;;;;;12.68;4.53;;;;;;;15.45;64.31;100452.66;5379193;32;35950;-76
2022/05/31 04:06:39;;;;;;;10.63;4.67;;;;;;;15.02;65.28;100467.50;5391048;32;35127;-76
2022/05/31 04:09:41;;;;;;;11.23;4.83;;;;;;;15.30;64.42;100465.00;5415454;32;35145;-75
2022/05/31 04:12:43;;;;;;;11.40;4.40;;;;;;;15.04;65.58;100476.22;5395174;32;32168;-75
2022/05/31 04:15:46;;;;;;;16.03;4.70;;;;;;;15.59;63.31;100473.91;5415575;32;44286;-76
2022/05/31 04:18:48;;;;;;;8.27;4.25;;;;;;;16.12;61.65;100475.19;5403438;32;33658;-76
2022/05/31 04:21:50;;;;;;;7.85;4.07;;;;;;;16.68;59.33;100465.53;5413545;32;35549;-75
2022/05/31 04:24:57;;;;;;;12.02;4.85;;;;;;;17.00;57.04;100459.97;5422035;32;34760;-76
2022/05/31 04:27:59;;;;;;;12.13;3.80;;;;;;;16.93;57.58;100466.63;5402538;32;35414;-76
2022/05/31 04:31:01;;;;;;;7.32;3.45;;;;;;;18.30;53.79;100468.06;5432248;32;35513;-76
2022/05/31 04:34:04;;;;;;;24.85;5.43;;;;;;;17.91;54.10;100469.00;5411926;32;35243;-75
2022/05/31 04:37:07;;;;;;;10.03;3.90;;;;;;;17.28;56.06;100462.56;5416054;32;34216;-75
2022/05/31 04:40:10;;;;;;;9.65;3.90;;;;;;;17.72;54.94;100458.78;5414265;32;34052;-75
2022/05/31 04:43:12;;;;;;;8.95;3.10;;;;;;;18.60;52.67;100462.38;5421094;32;34889;-75
2022/05/31 04:46:17;;;;;;;9.45;3.50;;;;;;;19.36;49.76;100455.97;5410720;32;43360;-75
2022/05/31 04:49:20;;;;;;;10.07;3.80;;;;;;;19.81;48.05;100460.66;5417016;32;34102;-77
2022/05/31 04:52:22;;;;;;;7.40;3.97;;;;;;;20.55;46.82;100453.97;5417302;32;34330;-76
2022/05/31 04:55:24;;;;;;;10.93;4.53;;;;;;;20.75;45.72;100453.22;5386146;32;34267;-77
2022/05/31 04:58:26;;;;;;;10.32;4.37;;;;;;;20.67;46.18;100462.81;5426280;32;34194;-75
2022/05/31 05:01:29;;;;;;;10.18;4.28;;;;;;;19.74;48.40;100465.59;5410129;32;34393;-74
2022/05/31 05:04:31;;;;;;;13.38;4.93;;;;;;;20.87;45.94;100458.56;5396308;32;34296;-75
2022/05/31 05:07:33;;;;;;;10.80;3.92;;;;;;;20.96;45.13;100455.97;5406701;32;35860;-75
2022/05/31 05:10:35;;;;;;;16.00;4.75;;;;;;;20.87;46.04;100445.22;5397153;32;35611;-76
2022/05/31 05:13:38;;;;;;;9.55;4.32;;;;;;;22.06;42.27;100441.41;5412878;32;34051;-75
2022/05/31 05:16:41;;;;;;;9.45;4.45;;;;;;;21.76;42.77;100454.72;5389252;32;34214;-76
2022/05/31 05:19:48;;;;;;;10.38;4.10;;;;;;;22.37;42.00;100444.16;5416369;32;44256;-75
2022/05/31 05:22:50;;;;;;;11.90;4.90;;;;;;;21.68;42.42;100455.38;5397111;32;34610;-75
2022/05/31 05:25:54;;;;;;;13.57;5.47;;;;;;;20.23;45.91;100459.16;5406368;32;34104;-76
2022/05/31 05:32:17;;;;;;;9.40;3.85;;;;;;;22.44;41.26;100454.16;5412067;32;44499;-75
2022/05/31 05:35:19;;;;;;;9.23;4.05;;;;;;;22.02;42.14;100461.38;5427939;32;35277;-74
2022/05/31 05:38:21;;;;;;;10.25;4.75;;;;;;;22.29;42.15;100462.72;5414745;32;34404;-75
2022/05/31 05:41:25;;;;;;;9.70;4.05;;;;;;;22.47;40.73;100466.44;5417098;32;34119;-75
2022/05/31 05:44:29;;;;;;;8.68;3.90;;;;;;;21.09;43.46;100461.19;5391782;32;35951;-76
2022/05/31 05:47:33;;;;;;;9.93;4.20;;;;;;;22.06;41.57;100467.31;5399119;32;33937;-75
2022/05/31 05:50:37;;;;;;;10.40;4.00;;;;;;;20.98;44.31;100456.69;5415833;32;35286;-77
2022/05/31 05:57:54;;;;;;;4.95;2.58;;;;;;;21.23;43.59;100462.72;5395254;27;20387;-92
2022/05/31 06:06:01;;;;;;;7.10;3.30;;;;;;;24.33;35.64;100443.13;5310876;32;34989;-90
2022/05/31 06:09:35;;;;;;;6.93;3.22;;;;;;;24.98;34.16;100452.03;5342381;32;35041;-94
2022/05/31 06:12:41;;;;;;;5.60;3.12;;;;;;;24.54;35.45;100454.53;5360448;32;32571;-71
2022/05/31 06:15:47;;;;;;;9.55;3.80;;;;;;;23.93;36.17;100463.03;5365833;32;35427;-72
2022/05/31 06:18:56;;;;;;;8.10;3.80;;;;;;;24.29;36.04;100456.03;5370566;32;44296;-82
2022/05/31 06:22:00;;;;;;;10.60;4.10;;;;;;;24.28;36.04;100465.06;5373181;32;33964;-72
2022/05/31 06:25:02;;;;;;;9.23;3.85;;;;;;;24.19;35.98;100457.03;5374750;32;35186;-72
2022/05/31 06:28:05;;;;;;;4.40;2.40;;;;;;;24.07;36.74;100469.78;5358808;32;34388;-74
2022/05/31 06:31:07;;;;;;;7.95;3.05;;;;;;;26.25;31.59;100462.59;5369653;32;36156;-74
2022/05/31 06:34:10;;;;;;;5.00;2.78;;;;;;;26.10;31.52;100457.78;5351265;32;34437;-73
2022/05/31 06:37:13;;;;;;;;;;;;;;;25.97;31.56;100461.91;5357255;32;35329;-78
2022/05/31 06:40:15;;;;;;;4.70;2.37;;;;;;;25.68;31.88;100465.69;5344146;32;34379;-75
2022/05/31 06:43:17;;;;;;;5.93;3.03;;;;;;;26.57;30.82;100472.72;5343520;32;35459;-73
2022/05/31 06:50:46;;;;;;;7.00;3.08;;;;;;;25.91;31.79;100463.38;5392318;27;36750;-96
2022/05/31 06:57:35;;;;;;;7.22;3.67;;;;;;;23.89;35.35;100471.50;5387500;32;34420;-96
2022/05/31 07:00:56;;;;;;;13.60;4.15;;;;;;;25.02;33.81;100464.19;5405870;32;34098;-96
2022/05/31 07:04:04;;;;;;;10.27;4.85;;;;;;;24.05;35.45;100485.19;5376396;32;37079;-96
2022/05/31 07:07:16;;;;;;;11.43;4.60;;;;;;;25.17;33.60;100480.66;5401129;32;35077;-96
2022/05/31 07:10:38;;;;;;;14.45;5.00;;;;;;;24.69;34.88;100481.75;5351486;32;33746;-93
2022/05/31 07:14:05;;;;;;;;;;;;;;;;;;;;;
2022/05/31 07:17:41;;;;;;;7.68;4.40;;;;;;;24.96;34.53;100454.03;5313374;33;34747;-96
2022/05/31 07:20:45;;;;;;;10.82;4.75;;;;;;;25.79;32.86;100464.63;5294902;33;34548;-96
2022/05/31 07:23:49;;;;;;;7.37;3.67;;;;;;;24.93;34.24;100466.94;5295029;33;34834;-95
2022/05/31 07:27:06;;;;;;;8.75;4.22;;;;;;;26.97;30.51;100462.09;5292393;27;250320;-73
2022/05/31 07:30:08;;;;;;;10.88;4.45;;;;;;;26.94;30.28;100478.63;5278192;33;35320;-77
2022/05/31 07:33:13;;;;;;;10.63;5.10;;;;;;;28.36;28.53;100464.91;5271910;33;35427;-69
2022/05/31 07:36:37;;;;;;;10.45;4.40;;;;;;;27.43;29.87;100472.50;5271451;33;34293;-69
2022/05/31 07:39:40;;;;;;;10.32;4.82;;;;;;;28.72;27.23;100472.53;5255845;33;33932;-68
2022/05/31 07:42:42;;;;;;;8.43;4.00;;;;;;;26.35;30.69;100477.66;5243907;33;34312;-68
2022/05/31 07:45:45;;;;;;;9.60;4.30;;;;;;;26.22;30.16;100474.53;5265077;33;34063;-64
2022/05/31 07:48:47;;;;;;;9.20;3.92;;;;;;;27.46;29.05;100472.19;5276504;33;33973;-68
2022/05/31 07:51:50;;;;;;;7.85;3.60;;;;;;;26.42;29.97;100481.41;5316073;32;45471;-68
2022/05/31 07:54:53;;;;;;;7.78;3.60;;;;;;;28.05;28.11;100473.72;5359289;32;34102;-72
2022/05/31 08:01:22;;;;;;;5.85;3.35;;;;;;;29.56;25.60;100468.22;5349505;32;34264;-68
2022/05/31 08:04:24;;;;;;;6.22;3.05;;;;;;;27.90;28.24;100478.13;5353263;32;44323;-67
2022/05/31 08:07:27;;;;;;;9.00;3.30;;;;;;;27.68;28.19;100476.06;5331394;32;33893;-68
2022/05/31 08:10:29;;;;;;;6.70;2.80;;;;;;;30.18;24.82;100473.44;5365290;32;35146;-71
2022/05/31 08:13:32;;;;;;;6.72;3.12;;;;;;;30.16;24.79;100483.63;5324031;32;33750;-81
2022/05/31 08:16:34;;;;;;;6.97;3.17;;;;;;;26.14;30.47;100479.84;5359800;32;35098;-79
2022/05/31 08:19:38;;;;;;;4.97;2.90;;;;;;;28.25;27.60;100479.59;5346503;32;34059;-74
2022/05/31 08:22:40;;;;;;;10.48;2.90;;;;;;;29.74;25.62;100486.84;5329827;32;34076;-69
2022/05/31 08:25:43;;;;;;;5.45;2.70;;;;;;;28.96;26.85;100487.84;5356721;32;36004;-67
2022/05/31 08:28:45;;;;;;;7.68;3.30;;;;;;;29.29;25.46;100489.34;5347225;32;35394;-69
2022/05/31 08:31:47;;;;;;;5.93;2.45;;;;;;;27.38;28.20;100486.53;5358103;32;34157;-69
2022/05/31 08:34:50;;;;;;;8.77;3.20;;;;;;;29.49;25.47;100484.31;5332293;32;44546;-71
2022/05/31 08:37:52;;;;;;;10.75;3.45;;;;;;;30.56;24.60;100493.19;5355644;32;35427;-66
2022/05/31 08:41:24;;;;;;;6.05;3.37;;;;;;;27.84;27.91;100491.47;5313538;32;35704;-69
2022/05/31 08:44:46;;;;;;;10.93;3.37;;;;;;;26.09;30.97;100492.97;5347795;32;44328;-69
2022/05/31 08:48:10;;;;;;;8.63;3.33;;;;;;;25.54;32.47;100499.38;5344188;32;32885;-69
2022/05/31 08:58:05;;;;;;;8.98;3.85;;;;;;;24.23;34.17;100491.50;5346219;32;34220;-74
2022/05/31 09:01:09;;;;;;;8.30;3.33;;;;;;;23.96;35.45;100488.75;5328912;32;34528;-70
2022/05/31 09:04:23;;;;;;;6.93;3.45;;;;;;;26.15;30.81;100476.19;5344925;32;34523;-72
2022/05/31 09:07:31;;;;;;;6.55;3.37;;;;;;;24.49;34.12;100485.53;5325502;32;44291;-67
2022/05/31 09:10:41;;;;;;;7.37;3.62;;;;;;;23.31;36.04;100493.78;5346432;32;34184;-67
2022/05/31 09:13:58;;;;;;;6.75;3.30;;;;;;;26.63;31.14;100485.56;5355934;32;34121;-67
2022/05/31 09:17:17;;;;;;;9.18;3.45;;;;;;;28.28;28.05;100467.59;5331550;32;33928;-69
2022/05/31 09:20:32;;;;;;;11.50;3.55;;;;;;;27.34;29.09;100471.66;5358672;32;34102;-68
2022/05/31 09:23:38;;;;;;;7.78;3.00;;;;;;;25.38;32.87;100478.53;5346424;32;33860;-76
2022/05/31 09:26:55;;;;;;;8.25;3.72;;;;;;;26.01;31.33;100477.56;5330357;32;35223;-76
2022/05/31 09:30:20;;;;;;;6.25;2.95;;;;;;;26.81;30.48;100475.53;5340910;32;44382;-72
2022/05/31 09:33:27;;;;;;;8.52;3.30;;;;;;;26.72;30.55;100477.34;5341194;32;44293;-72
2022/05/31 09:37:06;;;;;;;7.97;3.83;;;;;;;24.94;33.35;100471.31;5351179;32;33814;-66
2022/05/31 09:40:31;;;;;;;5.87;2.92;;;;;;;25.16;33.17;100476.28;5332368;32;34137;-72
2022/05/31 09:43:39;;;;;;;8.73;3.15;;;;;;;26.83;30.59;100475.38;5346041;32;36843;-73
2022/05/31 09:46:48;;;;;;;7.10;3.45;;;;;;;26.52;31.12;100478.59;5356562;32;34253;-66
2022/05/31 09:49:51;;;;;;;9.43;2.90;;;;;;;25.69;31.94;100474.59;5350760;32;44453;-70
2022/05/31 09:52:57;;;;;;;7.65;2.90;;;;;;;25.23;33.42;100473.84;5321784;32;33663;-72
2022/05/31 09:59:25;;;;;;;5.68;3.03;;;;;;;25.15;33.30;100476.44;5332771;32;44553;-75
2022/05/31 10:02:35;;;;;;;9.25;3.67;;;;;;;24.65;34.38;100469.59;5347865;32;33952;-67
2022/05/31 10:05:39;;;;;;;7.57;3.40;;;;;;;24.48;34.84;100471.25;5349863;32;35236;-72
2022/05/31 10:08:43;;;;;;;7.57;3.10;;;;;;;24.24;35.35;100463.66;5359276;32;33935;-72
2022/05/31 10:11:45;;;;;;;6.47;3.50;;;;;;;23.92;36.37;100468.53;5421381;27;36068;-70
2022/05/31 10:14:50;;;;;;;8.00;3.53;;;;;;;24.14;36.16;100462.00;5385474;32;35597;-68
2022/05/31 10:18:00;;;;;;;7.55;3.78;;;;;;;24.28;35.93;100451.66;5381500;32;44793;-80
2022/05/31 10:21:07;;;;;;;6.05;3.20;;;;;;;24.34;35.92;100460.13;5384282;32;35126;-71
2022/05/31 10:24:25;;;;;;;7.60;3.28;;;;;;;24.35;35.74;100472.59;5398493;32;34202;-67
2022/05/31 10:27:28;;;;;;;9.05;3.33;;;;;;;25.57;33.91;100447.94;5390193;32;44463;-70
2022/05/31 10:30:36;;;;;;;9.63;3.53;;;;;;;26.09;32.69;100456.09;5373915;32;35312;-69
2022/05/31 10:33:38;;;;;;;7.93;3.60;;;;;;;26.07;32.50;100450.00;5376770;32;34655;-69
2022/05/31 10:36:56;;;;;;;8.60;3.42;;;;;;;26.02;32.87;100454.19;5366140;32;35662;-73
2022/05/31 10:40:05;;;;;;;8.65;3.40;;;;;;;26.35;32.44;100441.78;5365331;32;34837;-74
2022/05/31 10:43:25;;;;;;;9.45;3.90;;;;;;;26.25;32.74;100459.91;5384409;32;34953;-76
2022/05/31 10:46:30;;;;;;;9.02;4.10;;;;;;;26.14;32.67;100456.44;5373839;32;47907;-72
2022/05/31 10:49:34;;;;;;;9.07;4.25;;;;;;;26.71;31.45;100450.53;5384701;32;32121;-68
2022/05/31 10:53:12;;;;;;;10.43;4.15;;;;;;;26.86;31.44;100443.53;5380992;32;35118;-70
2022/05/31 10:56:19;;;;;;;11.93;4.43;;;;;;;27.32;30.76;100441.31;5346435;32;33001;-69
2022/05/31 10:59:36;;;;;;;9.48;4.82;;;;;;;27.72;30.06;100440.50;5391739;32;46677;-72
2022/05/31 11:02:51;;;;;;;8.18;4.62;;;;;;;26.46;31.74;100447.75;5365900;32;34247;-80
2022/05/31 11:05:53;;;;;;;10.30;4.28;;;;;;;26.94;31.56;100438.16;5395171;32;44305;-69
2022/05/31 11:13:00;;;;;;;8.38;4.95;;;;;;;28.55;27.88;100448.28;5356515;32;33906;-71
2022/05/31 11:16:17;;;;;;;10.40;4.00;;;;;;;27.56;29.71;100440.44;5388423;32;34808;-72
2022/05/31 11:19:38;;;;;;;10.65;4.65;;;;;;;30.02;26.64;100428.38;5361745;32;33994;-70
2022/05/31 11:22:47;;;;;;;9.32;4.25;;;;;;;29.67;27.12;100427.16;5387929;32;35765;-72
2022/05/31 11:26:15;;;;;;;7.90;3.92;;;;;;;30.60;25.79;100424.00;5387715;32;46068;-73
2022/05/31 11:29:42;;;;;;;9.63;3.37;;;;;;;32.61;23.06;100418.28;5374151;32;35857;-69
2022/05/31 11:33:22;;;;;;;10.82;3.47;;;;;;;33.45;22.01;100407.03;5395119;32;35306;-75
2022/05/31 11:36:39;;;;;;;7.18;3.72;;;;;;;32.58;22.79;100413.25;5389736;32;34241;-68
2022/05/31 11:40:03;;;;;;;8.32;3.72;;;;;;;30.19;25.91;100418.19;5353570;32;35276;-76
2022/05/31 11:43:34;;;;;;;11.02;4.00;;;;;;;29.58;26.59;100415.56;5394461;32;34287;-68
2022/05/31 11:46:46;;;;;;;10.68;3.20;;;;;;;31.39;24.46;100396.94;5380868;32;33638;-76
2022/05/31 11:50:01;;;;;;;13.57;3.60;;;;;;;33.85;20.78;100388.75;5364531;32;35520;-70
2022/05/31 11:53:15;;;;;;;6.97;3.08;;;;;;;30.91;24.26;100396.59;5388123;32;35509;-73
2022/05/31 11:56:18;;;;;;;8.65;3.40;;;;;;;33.16;21.68;100400.03;5385740;32;34194;-69
2022/05/31 11:59:26;;;;;;;19.45;4.28;;;;;;;34.19;20.03;100395.84;5392818;32;43948;-69
2022/05/31 12:02:56;;;;;;;7.35;3.10;;;;;;;33.18;21.09;100387.06;5370285;32;33318;-71
2022/05/31 12:06:08;;;;;;;9.73;3.30;;;;;;;32.05;22.49;100391.19;5374005;32;46175;-70
2022/05/31 12:09:20;;;;;;;8.70;2.80;;;;;;;31.14;23.78;100382.87;5397591;32;35321;-67
2022/05/31 12:12:30;;;;;;;8.23;2.90;;;;;;;28.03;28.28;100392.00;5380555;32;46631;-72
2022/05/31 12:15:40;;;;;;;7.97;3.05;;;;;;;26.99;30.12;100389.13;5378168;32;33915;-69
2022/05/31 12:19:02;;;;;;;8.68;2.85;;;;;;;26.84;29.81;100391.59;5369939;32;34017;-67
2022/05/31 12:22:21;;;;;;;8.33;3.27;;;;;;;26.93;29.86;100389.78;5367591;32;34050;-69
2022/05/31 12:25:31;;;;;;;5.90;2.75;;;;;;;25.31;32.04;100386.00;5375751;32;44374;-68
2022/05/31 12:28:44;;;;;;;9.48;3.03;;;;;;;26.22;31.05;100377.56;5359502;32;35541;-68
2022/05/31 12:31:47;;;;;;;8.85;2.58;;;;;;;24.36;34.12;100381.09;5372231;32;34122;-70
2022/05/31 12:34:50;;;;;;;5.90;2.83;;;;;;;25.64;31.62;100381.72;5382330;32;43312;-70
2022/05/31 12:38:01;;;;;;;8.40;2.78;;;;;;;24.79;33.66;100379.56;5341509;32;34029;-68
2022/05/31 12:41:03;;;;;;;7.72;2.83;;;;;;;25.19;32.97;100373.81;5380263;32;35300;-70
2022/05/31 12:44:11;;;;;;;;;;;;;;;24.43;34.38;100359.88;5366529;32;35429;-68
2022/05/31 12:47:31;;;;;;;8.40;2.80;;;;;;;24.94;33.02;100361.09;5387820;32;34188;-69
2022/05/31 12:50:52;;;;;;;11.45;2.92;;;;;;;25.79;31.33;100355.09;5375531;32;38337;-71
2022/05/31 12:54:00;;;;;;;13.20;3.33;;;;;;;26.58;30.11;100347.75;5363863;32;44967;-71
2022/05/31 12:57:24;;;;;;;7.07;2.60;;;;;;;25.96;31.61;100353.38;5389092;32;33954;-68
2022/05/31 13:00:33;;;;;;;8.77;2.62;;;;;;;25.16;32.83;100352.56;5375670;32;34544;-69
2022/05/31 13:03:41;;;;;;;8.23;2.80;;;;;;;24.07;34.52;100354.34;5373824;32;36992;-68
2022/05/31 13:06:50;;;;;;;7.32;2.95;;;;;;;25.89;31.71;100342.37;5394078;32;33990;-69
2022/05/31 13:10:38;;;;;;;8.57;2.75;;;;;;;25.51;32.38;100348.16;5375204;32;44391;-71
2022/05/31 13:20:56;;;;;;;9.65;3.70;;;;;;;25.95;31.01;100331.97;5380368;32;34307;-68
2022/05/31 13:24:04;;;;;;;8.77;3.90;;;;;;;25.18;33.36;100334.44;5387732;32;44497;-67
2022/05/31 13:27:07;;;;;;;7.72;3.78;;;;;;;26.22;31.91;100318.31;5361034;32;35194;-66
2022/05/31 13:30:17;;;;;;;8.73;4.12;;;;;;;25.35;32.87;100322.81;5370897;32;34237;-67
2022/05/31 13:33:21;;;;;;;8.38;4.50;;;;;;;26.37;31.40;100313.97;5393475;32;35407;-72
2022/05/31 13:36:26;;;;;;;10.25;4.70;;;;;;;26.22;32.49;100314.75;5373788;32;46197;-68
2022/05/31 13:39:36;;;;;;;10.23;5.00;;;;;;;26.12;32.78;100317.56;5370102;32;35154;-72
2022/05/31 13:42:39;;;;;;;10.73;5.10;;;;;;;25.71;33.49;100311.13;5378039;32;35230;-74
2022/05/31 13:45:42;;;;;;;11.73;4.62;;;;;;;25.59;33.03;100307.84;5352576;32;34166;-69
2022/05/31 13:48:49;;;;;;;10.07;4.90;;;;;;;25.65;32.63;100307.22;5359006;32;35133;-66
2022/05/31 13:51:57;;;;;;;11.63;6.57;;;;;;;24.04;35.18;100311.69;5368003;32;44556;-69
2022/05/31 13:55:11;;;;;;;10.98;5.10;;;;;;;24.99;33.65;100305.00;5379217;32;34770;-74
2022/05/31 13:58:15;;;;;;;11.12;5.35;;;;;;;25.43;33.31;100308.56;5378747;32;34096;-70
2022/05/31 14:01:41;;;;;;;9.68;5.03;;;;;;;25.99;32.14;100298.31;5384472;32;35806;-69
2022/05/31 14:04:45;;;;;;;13.57;4.95;;;;;;;26.21;31.90;100300.44;5365298;32;34148;-68
2022/05/31 14:07:48;;;;;;;10.80;5.53;;;;;;;25.07;33.99;100297.91;5340888;32;34934;-75
2022/05/31 14:10:52;;;;;;;10.63;4.70;;;;;;;26.05;32.01;100295.84;5380059;32;47243;-74
2022/05/31 14:13:58;;;;;;;11.43;4.75;;;;;;;25.30;32.78;100302.75;5371636;32;34220;-66
2022/05/31 14:17:02;;;;;;;11.43;5.32;;;;;;;24.97;33.68;100290.88;5391702;32;34173;-69
2022/05/31 14:20:16;;;;;;;15.60;6.75;;;;;;;24.74;34.99;100287.81;5356249;32;33905;-74
2022/05/31 14:23:23;;;;;;;10.40;5.57;;;;;;;24.79;34.71;100286.34;5349366;32;35523;-76
2022/05/31 14:26:25;;;;;;;10.95;5.15;;;;;;;24.69;35.06;100290.12;5381005;32;46713;-74
2022/05/31 14:29:33;;;;;;;8.35;4.70;;;;;;;24.41;35.86;100283.94;5370022;32;34461;-69
2022/05/31 14:32:44;;;;;;;9.88;4.12;;;;;;;25.40;33.85;100279.31;5393859;32;34188;-67
2022/05/31 14:35:51;;;;;;;12.18;5.32;;;;;;;24.73;35.63;100278.91;5385581;32;34080;-68
2022/05/31 14:38:54;;;;;;;7.82;4.00;;;;;;;24.66;35.63;100272.44;5354221;32;46937;-68
2022/05/31 14:41:57;;;;;;;8.52;3.72;;;;;;;24.96;34.71;100265.00;5373691;32;33657;-75
2022/05/31 14:45:11;;;;;;;6.40;3.97;;;;;;;24.51;35.62;100260.56;5374020;32;35840;-69
2022/05/31 14:48:44;;;;;;;7.70;3.50;;;;;;;24.44;35.85;100259.47;5400919;32;34174;-76
2022/05/31 14:51:49;;;;;;;5.95;3.08;;;;;;;23.93;37.01;100261.72;5386832;32;35494;-73
2022/05/31 14:54:52;;;;;;;5.07;2.30;;;;;;;24.57;36.35;100263.47;5391848;32;46523;-73
2022/05/31 15:01:46;;;;;;;3.40;2.17;;;;;;;25.02;35.08;100248.25;5385471;32;46191;-73
2022/05/31 15:04:50;;;;;;;5.45;2.33;;;;;;;25.30;34.33;100252.50;5390706;32;34079;-68
2022/05/31 15:08:00;;;;;;;5.95;2.83;;;;;;;26.08;32.57;100232.72;5384640;32;42295;-73
2022/05/31 15:21:12;;;;;;;5.25;1.98;;;;;;;25.17;34.18;100241.31;5386670;32;34204;-74
2022/05/31 15:24:21;;;;;;;3.12;1.80;;;;;;;24.87;34.73;100234.53;5371147;32;34023;-74
2022/05/31 15:27:30;;;;;;;7.00;1.95;;;;;;;25.65;33.24;100231.84;5365211;32;46270;-74
2022/05/31 15:30:32;;;;;;;5.40;1.85;;;;;;;25.30;33.42;100235.50;5389621;32;34029;-75